Bayside, Wisconsin
Current Conditions -  °F | °C
As of 11:45 AM on Friday 28 Nov 2014 (Local Time) from KMWC Reporting Station
Overcast Overcast  
Wind Chill: 15°   Ceiling: 6500
Heat Index: 23°   Visibility: 10mi
Dew Point: 12°   Wind: 7mph
Humidity: 63%   Direction: 150°SSE
Pressure: 30.1"   Gusts: NA
Location:  43.1576°N, 87.9144°W
Report Text: KMWC 281745Z AUTO 15006KT 10SM OVC065 M05/M11 A3010
Loading
Personal Weather Stations






























Interactive Weather Map New forecast layout! Learn more

10-Day Weather Forecast

Advertisements
Track Severe Weather on mobile